createdAt,value
2018-03-01T00:00:16.786Z,1009.64
2018-03-01T00:01:16.380Z,1009.53
2018-03-01T00:02:15.576Z,1009.58
2018-03-01T00:03:15.873Z,1009.51
2018-03-01T00:04:16.592Z,1009.52
2018-03-01T00:05:15.987Z,1009.54
2018-03-01T00:06:16.399Z,1009.55
2018-03-01T00:07:15.872Z,1009.50
2018-03-01T00:08:15.316Z,1009.53
2018-03-01T00:09:15.747Z,1009.58
2018-03-01T00:10:14.724Z,1009.53
2018-03-01T00:11:14.689Z,1009.53
2018-03-01T00:12:14.417Z,1009.52
2018-03-01T00:13:14.182Z,1009.49
2018-03-01T00:14:14.114Z,1009.50
2018-03-01T00:15:14.086Z,1009.50
2018-03-01T00:16:14.054Z,1009.47
2018-03-01T00:17:13.997Z,1009.43
2018-03-01T00:18:13.994Z,1009.45
2018-03-01T00:19:13.924Z,1009.47
2018-03-01T00:20:13.953Z,1009.45
2018-03-01T00:21:13.871Z,1009.45
2018-03-01T00:22:13.824Z,1009.42
2018-03-01T00:23:13.805Z,1009.44
2018-03-01T00:24:13.789Z,1009.48
2018-03-01T00:25:13.716Z,1009.50
2018-03-01T00:26:13.675Z,1009.50
2018-03-01T00:27:13.635Z,1009.44
2018-03-01T00:28:13.596Z,1009.42
2018-03-01T00:29:13.592Z,1009.42
2018-03-01T00:30:13.522Z,1009.46
2018-03-01T00:31:13.483Z,1009.48
2018-03-01T00:32:13.533Z,1009.45
2018-03-01T00:33:13.426Z,1009.42
2018-03-01T00:34:13.366Z,1009.49
2018-03-01T00:35:13.328Z,1009.44
2018-03-01T00:36:13.298Z,1009.38
2018-03-01T00:37:13.259Z,1009.36
2018-03-01T00:38:13.260Z,1009.41
2018-03-01T00:39:13.256Z,1009.25
2018-03-01T00:40:13.142Z,1009.28
2018-03-01T00:41:13.117Z,1009.30
2018-03-01T00:42:13.073Z,1009.26
2018-03-01T00:43:13.086Z,1009.25
2018-03-01T00:44:13.004Z,1009.23
2018-03-01T00:45:12.957Z,1009.21
2018-03-01T00:46:12.985Z,1009.24
2018-03-01T00:47:12.891Z,1009.24
2018-03-01T00:48:12.854Z,1009.25
2018-03-01T00:49:12.813Z,1009.21
2018-03-01T00:50:12.775Z,1009.18
2018-03-01T00:51:12.753Z,1009.18
2018-03-01T00:52:12.707Z,1009.22
2018-03-01T00:53:12.666Z,1009.19
2018-03-01T00:54:12.629Z,1009.14
2018-03-01T00:55:12.606Z,1009.05
2018-03-01T00:56:12.556Z,1009.09
2018-03-01T00:57:12.543Z,1009.05
2018-03-01T00:58:12.483Z,1009.08
2018-03-01T00:59:12.444Z,1009.07
2018-03-01T01:00:12.411Z,1009.05
2018-03-01T01:01:12.369Z,1009.03
2018-03-01T01:02:12.330Z,1009.04
2018-03-01T01:03:12.292Z,1009.00
2018-03-01T01:04:12.258Z,1008.92
2018-03-01T01:05:12.220Z,1008.94
2018-03-01T01:06:12.258Z,1008.84
2018-03-01T01:07:12.143Z,1008.89
2018-03-01T01:08:12.107Z,1008.91
2018-03-01T01:09:12.070Z,1008.91
2018-03-01T01:10:12.032Z,1008.86
2018-03-01T01:11:12.011Z,1008.81
2018-03-01T01:12:11.962Z,1008.82
2018-03-01T01:13:11.915Z,1008.87
2018-03-01T01:14:11.877Z,1008.86
2018-03-01T01:15:11.846Z,1008.82
2018-03-01T01:16:11.806Z,1008.85
2018-03-01T01:17:11.799Z,1008.86
2018-03-01T01:18:11.740Z,1008.87
2018-03-01T01:19:11.693Z,1008.83
2018-03-01T01:20:11.655Z,1008.79
2018-03-01T01:21:11.625Z,1008.72
2018-03-01T01:22:11.608Z,1008.76
2018-03-01T01:23:11.583Z,1008.75
2018-03-01T01:24:11.519Z,1008.77
2018-03-01T01:25:11.576Z,1008.72
2018-03-01T01:26:11.438Z,1008.70
2018-03-01T01:27:11.414Z,1008.69
2018-03-01T01:28:11.371Z,1008.71
2018-03-01T01:29:11.339Z,1008.71
2018-03-01T01:30:11.287Z,1008.71
2018-03-01T01:31:11.295Z,1008.68
2018-03-01T01:32:11.216Z,1008.67
2018-03-01T01:33:11.171Z,1008.69
2018-03-01T01:34:11.185Z,1008.65
2018-03-01T01:35:11.113Z,1008.60
2018-03-01T01:36:11.068Z,1008.72
2018-03-01T01:37:11.094Z,1008.65
2018-03-01T01:38:11.047Z,1008.64
2018-03-01T01:39:10.954Z,1008.61
2018-03-01T01:40:10.918Z,1008.66
2018-03-01T01:41:10.915Z,1008.68
2018-03-01T01:42:10.842Z,1008.68
2018-03-01T01:43:10.814Z,1008.62
2018-03-01T01:44:10.849Z,1008.65
2018-03-01T01:45:10.732Z,1008.65
2018-03-01T01:46:10.712Z,1008.66
2018-03-01T01:47:10.654Z,1008.62
2018-03-01T01:48:10.682Z,1008.60
2018-03-01T01:49:10.584Z,1008.55
2018-03-01T01:50:10.622Z,1008.53
2018-03-01T01:51:10.506Z,1008.53
2018-03-01T01:52:10.469Z,1008.52
2018-03-01T01:53:10.429Z,1008.52
2018-03-01T01:54:10.389Z,1008.50
2018-03-01T01:55:10.402Z,1008.50
2018-03-01T01:56:10.324Z,1008.47
2018-03-01T01:57:10.319Z,1008.41
2018-03-01T01:58:10.240Z,1008.47
2018-03-01T01:59:10.211Z,1008.32
2018-03-01T02:00:10.169Z,1008.36
2018-03-01T02:01:10.136Z,1008.35
2018-03-01T02:02:10.183Z,1008.28
2018-03-01T02:03:10.062Z,1008.32
2018-03-01T02:04:10.073Z,1008.24
2018-03-01T02:05:09.998Z,1008.22
2018-03-01T02:06:10.016Z,1008.22
2018-03-01T02:07:09.918Z,1008.18
2018-03-01T02:08:09.871Z,1008.10
2018-03-01T02:09:09.853Z,1008.07
2018-03-01T02:10:09.800Z,1008.05
2018-03-01T02:11:09.893Z,1007.98
2018-03-01T02:12:09.728Z,1007.95
2018-03-01T02:13:09.685Z,1007.96
2018-03-01T02:14:09.697Z,1007.94
2018-03-01T02:15:09.609Z,1007.89
2018-03-01T02:16:09.572Z,1007.81
2018-03-01T02:17:09.545Z,1007.84
2018-03-01T02:18:09.535Z,1007.76
2018-03-01T02:19:09.467Z,1007.78
2018-03-01T02:20:09.427Z,1007.67
2018-03-01T02:21:09.387Z,1007.69
2018-03-01T02:22:09.360Z,1007.66
2018-03-01T02:23:09.319Z,1007.69
2018-03-01T02:24:09.279Z,1007.67
2018-03-01T02:25:09.236Z,1007.73
2018-03-01T02:26:09.235Z,1007.70
2018-03-01T02:27:09.168Z,1007.65
2018-03-01T02:28:09.184Z,1007.70
2018-03-01T02:29:09.115Z,1007.72
2018-03-01T02:30:09.045Z,1007.69
2018-03-01T02:31:09.013Z,1007.70
2018-03-01T02:32:09.017Z,1007.67
2018-03-01T02:33:08.946Z,1007.62
2018-03-01T02:34:08.902Z,1007.63
2018-03-01T02:35:08.864Z,1007.56
2018-03-01T02:36:08.830Z,1007.62
2018-03-01T02:37:08.795Z,1007.59
2018-03-01T02:38:08.750Z,1007.64
2018-03-01T02:39:08.714Z,1007.65
2018-03-01T02:40:08.678Z,1007.60
2018-03-01T02:41:08.646Z,1007.59
2018-03-01T02:42:08.598Z,1007.55
2018-03-01T02:43:08.564Z,1007.51
2018-03-01T02:44:08.532Z,1007.45
2018-03-01T02:45:08.487Z,1007.41
2018-03-01T02:46:08.452Z,1007.35
2018-03-01T02:47:08.414Z,1007.36
2018-03-01T02:48:08.374Z,1007.38
2018-03-01T02:49:08.342Z,1007.35
2018-03-01T02:50:08.304Z,1007.36
2018-03-01T02:51:08.292Z,1007.32
2018-03-01T02:52:08.229Z,1007.35
2018-03-01T02:53:08.194Z,1007.29
2018-03-01T02:54:08.189Z,1007.27
2018-03-01T02:55:08.115Z,1007.26
2018-03-01T02:56:08.075Z,1007.25
2018-03-01T02:57:08.044Z,1007.17
2018-03-01T02:58:08.005Z,1007.13
2018-03-01T02:59:07.964Z,1007.11
2018-03-01T03:00:07.929Z,1007.11
2018-03-01T03:01:07.889Z,1007.14
2018-03-01T03:02:07.854Z,1007.06
2018-03-01T03:03:07.818Z,1007.06
2018-03-01T03:04:07.780Z,1007.10
2018-03-01T03:05:07.739Z,1007.03
2018-03-01T03:06:07.707Z,1007.01
2018-03-01T03:07:07.660Z,1006.97
2018-03-01T03:08:07.628Z,1007.04
2018-03-01T03:09:07.616Z,1007.02
2018-03-01T03:10:07.551Z,1006.90
2018-03-01T03:11:07.551Z,1006.93
2018-03-01T03:12:07.483Z,1006.92
2018-03-01T03:13:07.464Z,1006.87
2018-03-01T03:14:07.417Z,1006.82
2018-03-01T03:15:07.371Z,1006.79
2018-03-01T03:16:07.329Z,1006.70
2018-03-01T03:17:07.335Z,1006.71
2018-03-01T03:18:07.259Z,1006.75
2018-03-01T03:19:07.221Z,1006.69
2018-03-01T03:20:07.191Z,1006.77
2018-03-01T03:21:07.138Z,1006.68
2018-03-01T03:22:07.101Z,1006.60
2018-03-01T03:23:07.065Z,1006.72
2018-03-01T03:24:07.064Z,1006.68
2018-03-01T03:25:06.995Z,1006.68
2018-03-01T03:26:06.958Z,1006.62
2018-03-01T03:27:06.928Z,1006.73
2018-03-01T03:28:06.986Z,1006.65
2018-03-01T03:29:06.877Z,1006.64
2018-03-01T03:30:06.819Z,1006.65
2018-03-01T03:31:06.781Z,1006.71
2018-03-01T03:32:06.734Z,1006.72
2018-03-01T03:33:06.694Z,1006.69
2018-03-01T03:34:06.775Z,1006.68
2018-03-01T03:35:06.627Z,1006.79
2018-03-01T03:36:06.585Z,1006.68
2018-03-01T03:37:06.545Z,1006.72
2018-03-01T03:38:06.558Z,1006.65
2018-03-01T03:39:06.486Z,1006.69
2018-03-01T03:40:06.429Z,1006.66
2018-03-01T03:41:06.395Z,1006.67
2018-03-01T03:42:06.352Z,1006.70
2018-03-01T03:43:06.325Z,1006.60
2018-03-01T03:44:06.351Z,1006.69
2018-03-01T03:45:06.241Z,1006.74
2018-03-01T03:46:06.243Z,1006.72
2018-03-01T03:47:06.167Z,1006.80
2018-03-01T03:48:06.142Z,1006.70
2018-03-01T03:49:06.096Z,1006.77
2018-03-01T03:50:06.056Z,1006.78
2018-03-01T03:51:06.024Z,1006.70
2018-03-01T03:52:06.004Z,1006.72
2018-03-01T03:53:05.978Z,1006.74
2018-03-01T03:54:05.905Z,1006.73
2018-03-01T03:55:05.910Z,1006.67
2018-03-01T03:56:05.833Z,1006.68
2018-03-01T03:57:05.851Z,1006.70
2018-03-01T03:58:05.753Z,1006.69
2018-03-01T03:59:05.779Z,1006.64
2018-03-01T04:00:05.688Z,1006.67
2018-03-01T04:01:05.646Z,1006.62
2018-03-01T04:02:05.653Z,1006.64
2018-03-01T04:03:05.589Z,1006.64
2018-03-01T04:04:05.540Z,1006.55
2018-03-01T04:05:05.511Z,1006.60
2018-03-01T04:06:05.538Z,1006.55
2018-03-01T04:07:05.432Z,1006.59
2018-03-01T04:08:05.384Z,1006.53
2018-03-01T04:09:05.344Z,1006.50
2018-03-01T04:10:15.291Z,1006.48
2018-03-01T04:12:07.676Z,1006.37
2018-03-01T04:13:18.036Z,1006.35
2018-03-01T04:15:02.220Z,1006.20
2018-03-01T04:16:02.430Z,1006.12
2018-03-01T04:18:05.951Z,1006.20
2018-03-01T04:19:04.945Z,1006.23
2018-03-01T04:21:09.766Z,1006.25
2018-03-01T04:22:09.753Z,1006.21
2018-03-01T04:24:06.269Z,1006.19
2018-03-01T04:27:01.026Z,1005.96
2018-03-01T04:28:02.071Z,1006.04
2018-03-01T04:29:56.812Z,1005.85
2018-03-01T04:30:57.773Z,1005.88
2018-03-01T04:33:00.147Z,1005.89
2018-03-01T04:34:01.080Z,1005.97
2018-03-01T04:36:04.736Z,1005.95
2018-03-01T04:37:04.892Z,1006.00
2018-03-01T04:39:14.073Z,1005.96
2018-03-01T04:40:14.950Z,1005.86
2018-03-01T04:42:15.135Z,1005.86
2018-03-01T04:43:15.132Z,1005.90
2018-03-01T04:45:20.055Z,1005.64
2018-03-01T04:46:20.035Z,1005.83
2018-03-01T04:48:22.110Z,1005.88
2018-03-01T04:49:21.904Z,1005.86
2018-03-01T04:51:31.320Z,1005.83
2018-03-01T04:52:31.703Z,1005.89
2018-03-01T04:54:34.565Z,1005.89
2018-03-01T04:55:35.604Z,1005.86
2018-03-01T04:57:33.816Z,1005.92
2018-03-01T04:58:33.839Z,1005.92
2018-03-01T05:00:28.748Z,1005.99
2018-03-01T05:01:29.129Z,1005.97
2018-03-01T05:03:26.753Z,1006.04
2018-03-01T05:04:27.088Z,1006.13
2018-03-01T05:06:33.067Z,1006.10
2018-03-01T05:07:33.987Z,1006.08
2018-03-01T05:09:32.129Z,1006.06
2018-03-01T05:10:33.665Z,1006.11
2018-03-01T05:11:33.069Z,1006.04
2018-03-01T05:12:33.036Z,1006.09
2018-03-01T05:13:32.496Z,1005.99
2018-03-01T05:14:33.311Z,1006.06
2018-03-01T05:15:32.379Z,1005.99
2018-03-01T05:16:31.847Z,1005.96
2018-03-01T05:17:32.013Z,1005.93
2018-03-01T05:18:32.306Z,1005.95
2018-03-01T05:19:31.437Z,1005.94
2018-03-01T05:20:31.297Z,1005.99
2018-03-01T05:21:31.176Z,1006.02
2018-03-01T05:22:31.199Z,1005.97
2018-03-01T05:23:31.096Z,1005.99
2018-03-01T05:24:31.073Z,1005.96
2018-03-01T05:25:31.019Z,1005.93
2018-03-01T05:26:31.081Z,1005.89
2018-03-01T05:27:30.946Z,1005.93
2018-03-01T05:28:30.950Z,1005.95
2018-03-01T05:29:30.872Z,1006.01
2018-03-01T05:30:30.843Z,1006.03
2018-03-01T05:31:30.799Z,1006.09
2018-03-01T05:32:30.766Z,1006.12
2018-03-01T05:33:30.734Z,1006.17
2018-03-01T05:34:30.690Z,1006.13
2018-03-01T05:35:30.725Z,1006.17
2018-03-01T05:36:30.687Z,1006.17
2018-03-01T05:37:30.576Z,1006.09
2018-03-01T05:38:30.531Z,1006.08
2018-03-01T05:39:30.496Z,1006.12
2018-03-01T05:40:30.462Z,1006.05
2018-03-01T05:41:30.435Z,1006.06
2018-03-01T05:42:30.382Z,1006.09
2018-03-01T05:43:30.344Z,1005.99
2018-03-01T05:44:30.324Z,1006.09
2018-03-01T05:45:30.276Z,1006.11
2018-03-01T05:46:30.237Z,1006.11
2018-03-01T05:47:30.205Z,1006.09
2018-03-01T05:48:30.169Z,1006.14
2018-03-01T05:49:30.127Z,1006.19
2018-03-01T05:50:30.132Z,1006.15
2018-03-01T05:51:30.085Z,1006.23
2018-03-01T05:52:30.016Z,1006.21
2018-03-01T05:53:29.970Z,1006.35
2018-03-01T05:54:29.941Z,1006.27
2018-03-01T05:55:29.904Z,1006.29
2018-03-01T05:56:29.870Z,1006.15
2018-03-01T05:57:29.833Z,1006.27
2018-03-01T05:58:29.878Z,1006.23
2018-03-01T05:59:29.748Z,1006.27
2018-03-01T06:00:29.712Z,1006.20
2018-03-01T06:01:29.717Z,1006.16
2018-03-01T06:02:29.646Z,1006.16
2018-03-01T06:03:29.603Z,1006.12
2018-03-01T06:04:29.573Z,1006.06
2018-03-01T06:05:29.621Z,1006.05
2018-03-01T06:06:29.498Z,1006.04
2018-03-01T06:07:29.456Z,1006.08
2018-03-01T06:08:29.484Z,1005.98
2018-03-01T06:09:29.412Z,1005.98
2018-03-01T06:10:29.383Z,1005.93
2018-03-01T06:11:29.310Z,1006.00
2018-03-01T06:12:29.265Z,1006.03
2018-03-01T06:13:29.237Z,1005.91
2018-03-01T06:14:29.204Z,1005.99
2018-03-01T06:15:29.186Z,1005.99
2018-03-01T06:16:29.124Z,1005.96
2018-03-01T06:17:29.169Z,1005.91
2018-03-01T06:18:29.063Z,1005.92
2018-03-01T06:19:29.049Z,1005.86
2018-03-01T06:20:28.972Z,1005.85
2018-03-01T06:21:28.934Z,1005.91
2018-03-01T06:22:28.943Z,1005.85
2018-03-01T06:23:28.919Z,1005.93
2018-03-01T06:24:28.823Z,1005.90
2018-03-01T06:25:28.784Z,1005.86
2018-03-01T06:26:28.744Z,1005.87
2018-03-01T06:27:28.709Z,1005.84
2018-03-01T06:28:28.668Z,1005.84
2018-03-01T06:29:28.637Z,1005.89
2018-03-01T06:30:28.601Z,1005.85
2018-03-01T06:31:28.564Z,1005.81
2018-03-01T06:32:28.536Z,1005.76
2018-03-01T06:33:28.490Z,1005.80
2018-03-01T06:34:28.446Z,1005.74
2018-03-01T06:35:28.412Z,1005.77
2018-03-01T06:36:28.371Z,1005.78
2018-03-01T06:37:28.360Z,1005.77
2018-03-01T06:38:28.333Z,1005.82
2018-03-01T06:39:28.277Z,1005.64
2018-03-01T06:40:28.231Z,1005.65
2018-03-01T06:41:28.188Z,1005.69
2018-03-01T06:42:28.157Z,1005.66
2018-03-01T06:43:28.116Z,1005.66
2018-03-01T06:44:28.084Z,1005.54
2018-03-01T06:45:28.038Z,1005.57
2018-03-01T06:46:28.005Z,1005.61
2018-03-01T06:47:28.014Z,1005.64
2018-03-01T06:48:27.929Z,1005.45
2018-03-01T06:49:27.891Z,1005.55
2018-03-01T06:50:27.858Z,1005.49
2018-03-01T06:51:27.814Z,1005.59
2018-03-01T06:52:27.882Z,1005.49
2018-03-01T06:53:27.777Z,1005.57
2018-03-01T06:54:27.866Z,1005.50
2018-03-01T06:55:27.678Z,1005.61
2018-03-01T06:56:27.643Z,1005.56
2018-03-01T06:57:27.591Z,1005.56
2018-03-01T06:58:27.627Z,1005.62
2018-03-01T06:59:27.539Z,1005.51
2018-03-01T07:00:27.523Z,1005.60
2018-03-01T07:01:27.464Z,1005.61
2018-03-01T07:02:27.421Z,1005.44
2018-03-01T07:03:27.376Z,1005.58
2018-03-01T07:04:27.332Z,1005.53
2018-03-01T07:05:27.294Z,1005.53
2018-03-01T07:06:27.257Z,1005.56
2018-03-01T07:07:27.225Z,1005.57
2018-03-01T07:08:27.190Z,1005.53
2018-03-01T07:09:27.143Z,1005.54
2018-03-01T07:10:27.107Z,1005.50
2018-03-01T07:11:27.073Z,1005.54
2018-03-01T07:12:27.031Z,1005.49
2018-03-01T07:13:27.017Z,1005.48
2018-03-01T07:14:26.970Z,1005.48
2018-03-01T07:15:26.928Z,1005.47
2018-03-01T07:16:26.891Z,1005.51
2018-03-01T07:17:26.852Z,1005.50
2018-03-01T07:18:26.819Z,1005.55
2018-03-01T07:19:26.775Z,1005.52
2018-03-01T07:20:26.793Z,1005.57
2018-03-01T07:21:26.699Z,1005.50
2018-03-01T07:22:26.723Z,1005.59
2018-03-01T07:23:26.650Z,1005.53
2018-03-01T07:24:26.623Z,1005.53
2018-03-01T07:25:26.613Z,1005.62
2018-03-01T07:26:26.515Z,1005.46
2018-03-01T07:27:26.473Z,1005.54
2018-03-01T07:28:26.439Z,1005.53
2018-03-01T07:29:26.470Z,1005.61
2018-03-01T07:30:26.369Z,1005.48
2018-03-01T07:31:26.341Z,1005.49
2018-03-01T07:32:26.303Z,1005.52
2018-03-01T07:33:26.263Z,1005.48
2018-03-01T07:34:26.284Z,1005.40
2018-03-01T07:35:26.251Z,1005.36
2018-03-01T07:36:26.144Z,1005.33
2018-03-01T07:37:26.194Z,1005.37
2018-03-01T07:38:26.094Z,1005.35
2018-03-01T07:39:26.037Z,1005.37
2018-03-01T07:40:26.002Z,1005.33
2018-03-01T07:41:26.003Z,1005.30
2018-03-01T07:42:26.017Z,1005.24
2018-03-01T07:43:25.912Z,1005.31
2018-03-01T07:44:25.992Z,1005.36
2018-03-01T07:45:25.866Z,1005.35
2018-03-01T07:46:52.064Z,1005.31
2018-03-01T07:48:39.557Z,1005.31
2018-03-01T07:49:31.096Z,1005.20
2018-03-01T07:51:36.000Z,1005.19
2018-03-01T07:54:31.476Z,1005.11
2018-03-01T07:55:31.941Z,1005.18
2018-03-01T07:57:36.175Z,1005.14
2018-03-01T07:58:36.204Z,1005.18
2018-03-01T08:00:32.535Z,1005.13
2018-03-01T08:01:32.528Z,1005.14
2018-03-01T08:03:44.426Z,1005.13
2018-03-01T08:04:43.834Z,1005.08
2018-03-01T08:05:44.806Z,1005.10
2018-03-01T08:06:43.265Z,1005.08
2018-03-01T08:07:43.822Z,1005.05
2018-03-01T08:08:43.802Z,1005.05
2018-03-01T08:09:43.820Z,1005.13
2018-03-01T08:10:43.632Z,1005.06
2018-03-01T08:11:43.084Z,1005.08
2018-03-01T08:12:43.454Z,1004.99
2018-03-01T08:13:43.833Z,1005.11
2018-03-01T08:14:42.596Z,1005.09
2018-03-01T08:15:42.581Z,1005.10
2018-03-01T08:16:42.484Z,1004.97
2018-03-01T08:17:42.357Z,1004.98
2018-03-01T08:18:42.316Z,1004.96
2018-03-01T08:19:42.288Z,1004.99
2018-03-01T08:20:42.327Z,1005.04
2018-03-01T08:21:42.207Z,1004.92
2018-03-01T08:22:42.177Z,1004.95
2018-03-01T08:23:42.141Z,1004.95
2018-03-01T08:24:42.108Z,1005.01
2018-03-01T08:25:42.069Z,1004.99
2018-03-01T08:26:42.029Z,1004.98
2018-03-01T08:27:41.993Z,1004.93
2018-03-01T08:28:41.968Z,1004.96
2018-03-01T08:29:41.922Z,1004.86
2018-03-01T08:30:41.887Z,1004.91
2018-03-01T08:31:41.846Z,1004.82
2018-03-01T08:32:41.817Z,1004.88
2018-03-01T08:33:41.778Z,1004.92
2018-03-01T08:34:41.757Z,1004.88
2018-03-01T08:35:41.707Z,1004.91
2018-03-01T08:36:41.678Z,1004.87
2018-03-01T08:37:41.635Z,1004.80
2018-03-01T08:38:41.599Z,1004.85
2018-03-01T08:39:41.566Z,1004.81
2018-03-01T08:40:41.528Z,1004.73
2018-03-01T08:41:41.502Z,1004.73
2018-03-01T08:42:41.451Z,1004.72
2018-03-01T08:43:41.422Z,1004.74
2018-03-01T08:44:41.377Z,1004.76
2018-03-01T08:45:41.421Z,1004.73
2018-03-01T08:46:41.308Z,1004.72
2018-03-01T08:47:41.269Z,1004.72
2018-03-01T08:48:41.284Z,1004.64
2018-03-01T08:49:41.359Z,1004.57
2018-03-01T08:50:41.166Z,1004.55
2018-03-01T08:51:41.142Z,1004.58
2018-03-01T08:52:41.094Z,1004.62
2018-03-01T08:53:41.060Z,1004.58
2018-03-01T08:54:41.082Z,1004.53
2018-03-01T08:55:41.085Z,1004.51
2018-03-01T08:56:41.032Z,1004.51
2018-03-01T08:57:40.916Z,1004.48
2018-03-01T08:58:40.887Z,1004.41
2018-03-01T08:59:40.844Z,1004.32
2018-03-01T09:00:40.808Z,1004.23
2018-03-01T09:01:40.894Z,1004.22
2018-03-01T09:02:40.731Z,1004.31
2018-03-01T09:03:40.698Z,1004.25
2018-03-01T09:04:40.677Z,1004.26
2018-03-01T09:05:40.630Z,1004.26
2018-03-01T09:06:40.598Z,1004.29
2018-03-01T09:07:40.561Z,1004.28
2018-03-01T09:08:40.523Z,1004.25
2018-03-01T09:09:40.490Z,1004.32
2018-03-01T09:10:40.452Z,1004.21
2018-03-01T09:11:40.434Z,1004.21
2018-03-01T09:12:40.410Z,1004.21
2018-03-01T09:13:40.353Z,1004.17
2018-03-01T09:14:40.414Z,1004.09
2018-03-01T09:15:40.345Z,1004.08
2018-03-01T09:16:40.246Z,1003.95
2018-03-01T09:17:40.232Z,1004.07
2018-03-01T09:18:40.242Z,1004.05
2018-03-01T09:19:40.130Z,1004.01
2018-03-01T09:20:40.110Z,1004.05
2018-03-01T09:21:40.054Z,1004.00
2018-03-01T09:22:40.023Z,1004.00
2018-03-01T09:23:39.987Z,1003.92
2018-03-01T09:24:39.980Z,1003.91
2018-03-01T09:25:39.923Z,1003.89
2018-03-01T09:26:39.876Z,1003.85
2018-03-01T09:27:39.851Z,1003.86
2018-03-01T09:28:39.807Z,1004.00
2018-03-01T09:29:39.779Z,1003.92
2018-03-01T09:30:39.739Z,1003.87
2018-03-01T09:31:39.710Z,1003.85
2018-03-01T09:32:39.697Z,1003.79
2018-03-01T09:33:39.632Z,1003.89
2018-03-01T09:34:39.594Z,1003.83
2018-03-01T09:35:39.562Z,1003.92
2018-03-01T09:36:39.527Z,1003.79
2018-03-01T09:37:39.531Z,1003.91
2018-03-01T09:38:39.464Z,1003.82
2018-03-01T09:39:39.439Z,1003.83
2018-03-01T09:40:39.376Z,1003.83
2018-03-01T09:41:39.351Z,1003.84
2018-03-01T09:42:39.338Z,1003.82
2018-03-01T09:43:39.271Z,1003.82
2018-03-01T09:44:39.291Z,1003.84
2018-03-01T09:45:39.203Z,1003.78
2018-03-01T09:46:39.180Z,1003.76
2018-03-01T09:47:39.130Z,1003.81
2018-03-01T09:48:39.107Z,1003.80
2018-03-01T09:49:39.098Z,1003.76
2018-03-01T09:50:39.035Z,1003.79
2018-03-01T09:51:39.115Z,1003.78
2018-03-01T09:52:38.954Z,1003.80
2018-03-01T09:53:38.920Z,1003.76
2018-03-01T09:54:38.920Z,1003.79
2018-03-01T09:55:38.846Z,1003.72
2018-03-01T09:56:38.826Z,1003.65
2018-03-01T09:57:38.776Z,1003.58
2018-03-01T09:58:38.746Z,1003.51
2018-03-01T09:59:38.701Z,1003.57
2018-03-01T10:00:38.672Z,1003.56
2018-03-01T10:01:38.717Z,1003.53
2018-03-01T10:02:38.605Z,1003.57
2018-03-01T10:03:38.568Z,1003.55
2018-03-01T10:04:38.534Z,1003.52
2018-03-01T10:05:38.496Z,1003.48
2018-03-01T10:06:38.462Z,1003.47
2018-03-01T10:07:38.445Z,1003.48
2018-03-01T10:08:38.389Z,1003.47
2018-03-01T10:09:38.360Z,1003.44
2018-03-01T10:10:38.323Z,1003.44
2018-03-01T10:11:38.329Z,1003.43
2018-03-01T10:12:38.246Z,1003.46
2018-03-01T10:13:38.210Z,1003.48
2018-03-01T10:14:38.173Z,1003.50
2018-03-01T10:15:38.151Z,1003.40
2018-03-01T10:16:38.164Z,1003.40
2018-03-01T10:17:38.070Z,1003.43
2018-03-01T10:18:38.049Z,1003.31
2018-03-01T10:19:38.003Z,1003.40
2018-03-01T10:20:37.981Z,1003.34
2018-03-01T10:21:37.947Z,1003.29
2018-03-01T10:22:37.911Z,1003.14
2018-03-01T10:23:37.917Z,1003.28
2018-03-01T10:24:37.844Z,1003.21
2018-03-01T10:25:37.806Z,1003.18
2018-03-01T10:26:37.774Z,1003.30
2018-03-01T10:27:37.731Z,1003.27
2018-03-01T10:28:37.735Z,1003.26
2018-03-01T10:29:37.651Z,1003.28
2018-03-01T10:30:37.621Z,1003.34
2018-03-01T10:31:37.647Z,1003.34
2018-03-01T10:32:37.559Z,1003.35
2018-03-01T10:33:37.526Z,1003.21
2018-03-01T10:34:37.480Z,1003.19
2018-03-01T10:35:37.453Z,1003.27
2018-03-01T10:36:37.410Z,1003.13
2018-03-01T10:37:37.375Z,1003.17
2018-03-01T10:38:37.391Z,1003.14
2018-03-01T10:39:37.307Z,1003.17
2018-03-01T10:40:37.278Z,1003.14
2018-03-01T10:41:37.239Z,1003.19
2018-03-01T10:42:37.214Z,1003.12
2018-03-01T10:43:37.329Z,1003.17
2018-03-01T10:44:37.138Z,1003.10
2018-03-01T10:45:37.120Z,1003.10
2018-03-01T10:46:37.073Z,1003.06
2018-03-01T10:47:37.035Z,1003.16
2018-03-01T10:48:37.002Z,1003.12
2018-03-01T10:49:36.974Z,1003.03
2018-03-01T10:50:37.038Z,1003.06
2018-03-01T10:51:36.902Z,1003.18
2018-03-01T10:52:36.860Z,1003.10
2018-03-01T10:53:36.826Z,1003.12
2018-03-01T10:54:36.801Z,1003.11
2018-03-01T10:55:36.756Z,1003.14
2018-03-01T10:56:36.727Z,1003.09
2018-03-01T10:57:36.696Z,1003.10
2018-03-01T10:58:36.662Z,1003.07
2018-03-01T10:59:36.656Z,1003.06
2018-03-01T11:00:36.595Z,1002.93
2018-03-01T11:01:36.581Z,1002.95
2018-03-01T11:02:36.624Z,1002.96
2018-03-01T11:03:36.494Z,1002.93
2018-03-01T11:04:36.455Z,1002.93
2018-03-01T11:05:36.422Z,1002.78
2018-03-01T11:06:36.381Z,1002.86
2018-03-01T11:07:36.471Z,1002.82
2018-03-01T11:08:36.313Z,1002.86
2018-03-01T11:09:36.391Z,1002.82
2018-03-01T11:10:36.250Z,1002.80
2018-03-01T11:11:37.903Z,1002.78
2018-03-01T11:12:36.184Z,1002.73
2018-03-01T11:13:36.162Z,1002.75
2018-03-01T11:14:36.116Z,1002.72
2018-03-01T11:15:36.083Z,1002.65
2018-03-01T11:16:36.048Z,1002.65
2018-03-01T11:17:36.023Z,1002.74
2018-03-01T11:18:35.991Z,1002.62
2018-03-01T11:19:35.955Z,1002.69
2018-03-01T11:20:35.928Z,1002.64
2018-03-01T11:21:35.884Z,1002.68
2018-03-01T11:22:35.845Z,1002.68
2018-03-01T11:23:35.825Z,1002.60
2018-03-01T11:24:35.793Z,1002.62
2018-03-01T11:25:35.774Z,1002.54
2018-03-01T11:26:35.716Z,1002.62
2018-03-01T11:27:35.690Z,1002.66
2018-03-01T11:28:35.785Z,1002.51
2018-03-01T11:29:35.612Z,1002.54
2018-03-01T11:30:37.409Z,1002.47
2018-03-01T11:31:35.549Z,1002.55
2018-03-01T11:32:35.518Z,1002.54
2018-03-01T11:33:35.510Z,1002.39
2018-03-01T11:34:35.572Z,1002.45
2018-03-01T11:35:35.486Z,1002.46
2018-03-01T11:36:35.380Z,1002.37
2018-03-01T11:37:35.453Z,1002.36
2018-03-01T11:38:35.488Z,1002.33
2018-03-01T11:39:35.287Z,1002.26
2018-03-01T11:40:35.256Z,1002.28
2018-03-01T11:41:35.219Z,1002.23
2018-03-01T11:42:35.186Z,1002.22
2018-03-01T11:43:35.222Z,1002.16
2018-03-01T11:44:35.192Z,1002.16
2018-03-01T11:45:35.093Z,1002.10
2018-03-01T11:46:35.064Z,1002.13
2018-03-01T11:47:35.089Z,1002.05
2018-03-01T11:48:34.991Z,1001.97
2018-03-01T11:49:34.965Z,1002.03
2018-03-01T11:50:34.927Z,1002.04
2018-03-01T11:51:34.963Z,1002.02
2018-03-01T11:52:34.866Z,1001.89
2018-03-01T11:53:34.897Z,1001.90
2018-03-01T11:54:34.800Z,1001.79
2018-03-01T11:55:34.768Z,1001.78
2018-03-01T11:56:34.743Z,1001.67
2018-03-01T11:57:34.704Z,1001.64
2018-03-01T11:58:34.677Z,1001.64
2018-03-01T11:59:34.644Z,1001.58
2018-03-01T12:00:34.633Z,1001.66
2018-03-01T12:01:34.579Z,1001.68
2018-03-01T12:02:34.558Z,1001.64
2018-03-01T12:03:34.693Z,1001.59
2018-03-01T12:04:34.634Z,1001.65
2018-03-01T12:05:34.454Z,1001.61
2018-03-01T12:06:34.468Z,1001.56
2018-03-01T12:07:34.395Z,1001.65
2018-03-01T12:08:36.947Z,1001.62
2018-03-01T12:09:34.341Z,1001.59
2018-03-01T12:10:34.546Z,1001.66
2018-03-01T12:11:34.272Z,1001.59
2018-03-01T12:12:34.248Z,1001.61
2018-03-01T12:13:34.232Z,1001.60
2018-03-01T12:14:34.200Z,1001.67
2018-03-01T12:15:34.154Z,1001.55
2018-03-01T12:16:34.137Z,1001.66
2018-03-01T12:17:34.091Z,1001.47
2018-03-01T12:18:34.112Z,1001.58
2018-03-01T12:19:34.034Z,1001.62
2018-03-01T12:20:34.213Z,1001.56
2018-03-01T12:21:33.978Z,1001.53
2018-03-01T12:22:33.939Z,1001.38
2018-03-01T12:23:33.911Z,1001.51
2018-03-01T12:24:33.907Z,1001.52
2018-03-01T12:25:33.851Z,1001.50
2018-03-01T12:26:33.827Z,1001.57
2018-03-01T12:27:33.806Z,1001.54
2018-03-01T12:28:33.769Z,1001.62
2018-03-01T12:29:33.736Z,1001.56
2018-03-01T12:30:33.709Z,1001.61
2018-03-01T12:31:33.778Z,1001.59
2018-03-01T12:32:33.660Z,1001.56
2018-03-01T12:33:33.676Z,1001.59